Time;durP1;ratioP1;P1;durP2;ratioP2;P2;SDS_P1;SDS_P2;PMS_P1;PMS_P2;Temp;Humidity;BMP_temperature;BMP_pressure;BME280_temperature;BME280_humidity;BME280_pressure;Samples;Min_cycle;Max_cycle;Signal;HPM_P1;HPM_P2
2021/10/05 00:01:48;;;;;;;;;;;21.60;58.30;;;;;;517211;230;1305;-47
2021/10/05 00:03:49;;;;;;;;;;;21.60;58.20;;;;;;517545;230;1030;-47
2021/10/05 00:05:50;;;;;;;;;;;21.60;58.30;;;;;;517213;230;1471;-47
2021/10/05 00:07:52;;;;;;;;;;;21.60;58.20;;;;;;517182;230;1278;-47
2021/10/05 00:09:53;;;;;;;;;;;21.60;58.30;;;;;;517296;230;1084;-46
2021/10/05 00:11:54;;;;;;;;;;;21.60;58.30;;;;;;517212;230;1291;-47
2021/10/05 00:13:56;;;;;;;;;;;21.50;58.30;;;;;;517807;230;1125;-46
2021/10/05 00:15:57;;;;;;;;;;;21.50;58.30;;;;;;517411;230;2122;-47
2021/10/05 00:17:58;;;;;;;;;;;21.50;58.30;;;;;;517293;230;1162;-47
2021/10/05 00:20:00;;;;;;;;;;;21.60;58.40;;;;;;517385;230;1034;-47
2021/10/05 00:22:01;;;;;;;;;;;21.60;58.20;;;;;;517243;230;1221;-47
2021/10/05 00:24:02;;;;;;;;;;;21.60;58.20;;;;;;517496;230;1127;-47
2021/10/05 00:26:04;;;;;;;;;;;21.60;58.10;;;;;;517290;230;1273;-47
2021/10/05 00:28:06;;;;;;;;;;;21.60;58.10;;;;;;517646;230;1273;-47
2021/10/05 00:30:07;;;;;;;;;;;21.60;58.10;;;;;;517274;230;2380;-46
2021/10/05 00:32:08;;;;;;;;;;;21.60;58.20;;;;;;517630;230;1247;-47
2021/10/05 00:34:09;;;;;;;;;;;21.60;58.20;;;;;;517236;230;1024;-47
2021/10/05 00:36:10;;;;;;;;;;;21.60;58.30;;;;;;517293;230;2168;-47
2021/10/05 00:38:12;;;;;;;;;;;21.60;58.30;;;;;;517348;230;1294;-47
2021/10/05 00:40:13;;;;;;;;;;;21.50;58.30;;;;;;517855;230;1004;-47
2021/10/05 00:42:14;;;;;;;;;;;21.60;58.20;;;;;;517289;230;1603;-47
2021/10/05 00:44:16;;;;;;;;;;;21.60;58.20;;;;;;517363;230;1059;-46
2021/10/05 00:46:21;;;;;;;;;;;21.60;58.20;;;;;;517558;230;1370;-46
2021/10/05 00:48:20;;;;;;;;;;;21.60;58.20;;;;;;517133;229;2008;-47
2021/10/05 00:50:21;;;;;;;;;;;21.60;58.30;;;;;;517510;230;1039;-47
2021/10/05 00:52:23;;;;;;;;;;;21.60;58.30;;;;;;517283;230;1342;-47
2021/10/05 00:54:24;;;;;;;;;;;21.60;58.20;;;;;;517343;230;1168;-47
2021/10/05 00:56:25;;;;;;;;;;;21.60;58.20;;;;;;517229;230;2179;-47
2021/10/05 00:58:27;;;;;;;;;;;21.60;58.20;;;;;;517231;230;1258;-47
2021/10/05 01:00:28;;;;;;;;;;;21.60;58.20;;;;;;517117;230;1042;-47
2021/10/05 01:02:29;;;;;;;;;;;21.60;58.20;;;;;;517273;230;1543;-47
2021/10/05 01:04:31;;;;;;;;;;;21.60;58.20;;;;;;517367;230;1053;-47
2021/10/05 01:06:33;;;;;;;;;;;21.60;58.20;;;;;;517505;230;1431;-46
2021/10/05 01:08:33;;;;;;;;;;;21.60;58.10;;;;;;517213;229;2268;-46
2021/10/05 01:10:35;;;;;;;;;;;21.60;58.10;;;;;;517273;230;1030;-47
2021/10/05 01:12:36;;;;;;;;;;;21.60;58.20;;;;;;517266;230;1341;-47
2021/10/05 01:14:37;;;;;;;;;;;21.60;58.20;;;;;;517419;230;1065;-47
2021/10/05 01:16:39;;;;;;;;;;;21.60;58.20;;;;;;517246;230;2164;-47
2021/10/05 01:18:40;;;;;;;;;;;21.60;58.10;;;;;;517442;230;1046;-47
2021/10/05 01:20:41;;;;;;;;;;;21.60;58.20;;;;;;517283;230;1205;-46
2021/10/05 01:22:43;;;;;;;;;;;21.60;58.20;;;;;;517257;230;1388;-47
2021/10/05 01:24:44;;;;;;;;;;;21.60;58.30;;;;;;517340;230;1152;-47
2021/10/05 01:26:45;;;;;;;;;;;21.60;58.20;;;;;;517209;230;1140;-47
2021/10/05 01:28:46;;;;;;;;;;;21.60;58.20;;;;;;517754;230;1095;-46
2021/10/05 01:30:48;;;;;;;;;;;21.60;58.10;;;;;;517455;230;1047;-47
2021/10/05 01:32:49;;;;;;;;;;;21.60;58.10;;;;;;517775;230;1217;-47
2021/10/05 01:34:50;;;;;;;;;;;21.60;58.20;;;;;;517523;230;1010;-47
2021/10/05 01:36:52;;;;;;;;;;;21.60;58.20;;;;;;517390;230;2098;-47
2021/10/05 01:38:53;;;;;;;;;;;21.60;58.20;;;;;;518178;230;1340;-46
2021/10/05 01:40:54;;;;;;;;;;;21.60;58.10;;;;;;518971;229;981;-46
2021/10/05 01:42:56;;;;;;;;;;;21.70;58.10;;;;;;518942;229;1158;-47
2021/10/05 01:44:57;;;;;;;;;;;21.70;58.00;;;;;;519376;229;1051;-47
2021/10/05 01:46:58;;;;;;;;;;;21.60;58.00;;;;;;519139;229;1371;-47
2021/10/05 01:49:00;;;;;;;;;;;21.60;58.10;;;;;;518949;230;1065;-47
2021/10/05 01:51:01;;;;;;;;;;;21.60;58.20;;;;;;519067;229;1252;-47
2021/10/05 01:53:02;;;;;;;;;;;21.60;58.30;;;;;;518996;229;1309;-47
2021/10/05 01:55:04;;;;;;;;;;;21.60;58.30;;;;;;518832;229;1562;-47
2021/10/05 01:57:05;;;;;;;;;;;21.60;58.20;;;;;;519125;229;2171;-47
2021/10/05 01:59:06;;;;;;;;;;;21.60;58.20;;;;;;519175;229;1018;-46
2021/10/05 02:01:07;;;;;;;;;;;21.60;58.20;;;;;;518940;229;1438;-46
2021/10/05 02:03:09;;;;;;;;;;;21.60;58.20;;;;;;518848;230;1243;-46
2021/10/05 02:05:10;;;;;;;;;;;21.60;58.20;;;;;;519310;229;1015;-46
2021/10/05 02:07:12;;;;;;;;;;;21.60;58.20;;;;;;518910;230;1829;-47
2021/10/05 02:09:13;;;;;;;;;;;21.60;58.20;;;;;;518964;230;1277;-47
2021/10/05 02:11:15;;;;;;;;;;;21.60;58.20;;;;;;518973;229;1232;-46
2021/10/05 02:13:16;;;;;;;;;;;21.60;58.20;;;;;;518905;230;1062;-46
2021/10/05 02:15:17;;;;;;;;;;;21.60;58.30;;;;;;518970;229;1033;-47
2021/10/05 02:17:19;;;;;;;;;;;21.60;58.20;;;;;;519120;229;2203;-47
2021/10/05 02:19:20;;;;;;;;;;;21.60;58.20;;;;;;519338;229;1163;-47
2021/10/05 02:21:21;;;;;;;;;;;21.60;58.10;;;;;;518965;229;1353;-47
2021/10/05 02:23:23;;;;;;;;;;;21.60;58.20;;;;;;519013;229;1154;-46
2021/10/05 02:25:24;;;;;;;;;;;21.60;58.10;;;;;;519066;229;1276;-46
2021/10/05 02:27:25;;;;;;;;;;;21.60;58.20;;;;;;518912;230;1134;-47
2021/10/05 02:29:27;;;;;;;;;;;21.60;58.20;;;;;;519238;229;1030;-47
2021/10/05 02:31:28;;;;;;;;;;;21.60;58.20;;;;;;518803;230;1234;-47
2021/10/05 02:33:29;;;;;;;;;;;21.60;58.20;;;;;;519206;229;1289;-46
2021/10/05 02:35:31;;;;;;;;;;;21.60;58.20;;;;;;519145;229;1029;-46
2021/10/05 02:37:32;;;;;;;;;;;21.60;58.10;;;;;;519029;229;2104;-47
2021/10/05 02:39:33;;;;;;;;;;;21.60;58.10;;;;;;519339;229;1160;-46
2021/10/05 02:41:35;;;;;;;;;;;21.60;58.10;;;;;;518752;230;1340;-47
2021/10/05 02:43:36;;;;;;;;;;;21.60;58.20;;;;;;519303;229;1127;-47
2021/10/05 02:45:37;;;;;;;;;;;21.60;58.20;;;;;;518939;230;1039;-47
2021/10/05 02:47:39;;;;;;;;;;;21.60;58.20;;;;;;519068;229;1123;-47
2021/10/05 02:49:44;;;;;;;;;;;21.60;58.10;;;;;;519012;229;1013;-47
2021/10/05 02:51:45;;;;;;;;;;;21.60;58.20;;;;;;518921;229;1340;-46
2021/10/05 02:53:46;;;;;;;;;;;21.60;58.20;;;;;;518990;230;1038;-46
2021/10/05 02:55:49;;;;;;;;;;;21.60;58.20;;;;;;519107;229;1161;-46
2021/10/05 02:57:49;;;;;;;;;;;21.60;58.10;;;;;;518863;230;2171;-46
2021/10/05 02:59:50;;;;;;;;;;;21.60;58.10;;;;;;519160;229;1090;-47
2021/10/05 03:01:51;;;;;;;;;;;21.60;58.20;;;;;;518882;229;1962;-46
2021/10/05 03:03:53;;;;;;;;;;;21.60;58.20;;;;;;519154;229;1071;-46
2021/10/05 03:05:54;;;;;;;;;;;21.60;58.20;;;;;;518986;230;1352;-47
2021/10/05 03:07:56;;;;;;;;;;;21.60;58.10;;;;;;519068;229;1140;-47
2021/10/05 03:09:57;;;;;;;;;;;21.60;58.10;;;;;;519043;229;1534;-47
2021/10/05 03:11:58;;;;;;;;;;;21.60;58.20;;;;;;518834;230;1250;-47
2021/10/05 03:13:59;;;;;;;;;;;21.60;58.20;;;;;;519492;229;1049;-47
2021/10/05 03:16:01;;;;;;;;;;;21.60;58.10;;;;;;519124;229;1186;-47
2021/10/05 03:18:02;;;;;;;;;;;21.60;58.10;;;;;;519189;229;2179;-47
2021/10/05 03:20:03;;;;;;;;;;;21.60;58.00;;;;;;518939;230;1061;-47
2021/10/05 03:22:05;;;;;;;;;;;21.60;58.10;;;;;;518809;230;1410;-47
2021/10/05 03:24:06;;;;;;;;;;;21.60;58.10;;;;;;519050;229;1274;-46
2021/10/05 03:26:07;;;;;;;;;;;21.60;58.10;;;;;;518898;230;1180;-47
2021/10/05 03:28:09;;;;;;;;;;;21.60;58.20;;;;;;519087;229;1028;-46
2021/10/05 03:30:10;;;;;;;;;;;21.60;58.20;;;;;;519297;229;1086;-47
2021/10/05 03:32:11;;;;;;;;;;;21.60;58.20;;;;;;518834;229;1258;-47
2021/10/05 03:34:13;;;;;;;;;;;21.60;58.10;;;;;;519196;229;1052;-46
2021/10/05 03:36:14;;;;;;;;;;;21.60;58.20;;;;;;518859;230;1403;-47
2021/10/05 03:38:15;;;;;;;;;;;21.60;58.10;;;;;;518905;230;2167;-47
2021/10/05 03:40:16;;;;;;;;;;;21.60;58.10;;;;;;518825;230;1179;-46
2021/10/05 03:42:18;;;;;;;;;;;21.60;58.10;;;;;;518964;229;1200;-47
2021/10/05 03:44:19;;;;;;;;;;;21.60;58.20;;;;;;519135;229;1039;-47
2021/10/05 03:46:20;;;;;;;;;;;21.60;58.20;;;;;;518907;229;2217;-47
2021/10/05 03:48:22;;;;;;;;;;;21.60;58.20;;;;;;518970;229;1106;-47
2021/10/05 03:50:23;;;;;;;;;;;21.60;58.20;;;;;;518886;229;1220;-47
2021/10/05 03:52:25;;;;;;;;;;;21.60;58.30;;;;;;518956;229;1237;-46
2021/10/05 03:54:26;;;;;;;;;;;21.60;58.20;;;;;;518967;230;1094;-46
2021/10/05 03:56:27;;;;;;;;;;;21.50;58.30;;;;;;519016;229;2194;-47
2021/10/05 03:58:29;;;;;;;;;;;21.50;58.30;;;;;;519219;229;1249;-47
2021/10/05 04:00:30;;;;;;;;;;;21.60;58.30;;;;;;518782;230;1042;-47
2021/10/05 04:02:31;;;;;;;;;;;21.60;58.30;;;;;;519022;229;1117;-46
2021/10/05 04:04:32;;;;;;;;;;;21.60;58.20;;;;;;518942;229;1038;-47
2021/10/05 04:06:34;;;;;;;;;;;21.60;58.20;;;;;;518813;230;1263;-47
2021/10/05 04:08:36;;;;;;;;;;;21.60;58.10;;;;;;518995;229;1261;-47
2021/10/05 04:10:37;;;;;;;;;;;21.60;58.10;;;;;;518987;229;1738;-46
2021/10/05 04:12:38;;;;;;;;;;;21.60;58.10;;;;;;518910;229;1020;-47
2021/10/05 04:14:39;;;;;;;;;;;21.60;58.10;;;;;;519052;229;1109;-47
2021/10/05 04:16:41;;;;;;;;;;;21.60;58.10;;;;;;518975;229;2175;-47
2021/10/05 04:18:42;;;;;;;;;;;21.60;58.10;;;;;;518800;230;1195;-47
2021/10/05 04:20:43;;;;;;;;;;;21.60;58.10;;;;;;518669;230;1473;-47
2021/10/05 04:22:45;;;;;;;;;;;21.60;58.10;;;;;;518785;229;1181;-46
2021/10/05 04:24:46;;;;;;;;;;;21.60;58.10;;;;;;518804;229;1243;-47
2021/10/05 04:26:47;;;;;;;;;;;21.60;58.10;;;;;;518770;230;1168;-46
2021/10/05 04:28:49;;;;;;;;;;;21.60;58.10;;;;;;519174;229;1032;-47
2021/10/05 04:30:50;;;;;;;;;;;21.60;58.10;;;;;;519048;229;1051;-47
2021/10/05 04:32:51;;;;;;;;;;;21.60;58.10;;;;;;518754;229;1089;-46
2021/10/05 04:34:53;;;;;;;;;;;21.60;58.20;;;;;;518965;229;1148;-47
2021/10/05 04:36:54;;;;;;;;;;;21.60;58.20;;;;;;518815;229;2116;-47
2021/10/05 04:38:56;;;;;;;;;;;21.60;58.20;;;;;;519187;229;1301;-46
2021/10/05 04:40:57;;;;;;;;;;;21.60;58.20;;;;;;518722;230;1184;-47
2021/10/05 04:42:58;;;;;;;;;;;21.60;58.10;;;;;;518655;230;1166;-47
2021/10/05 04:45:00;;;;;;;;;;;21.60;58.00;;;;;;518732;230;1138;-47
2021/10/05 04:47:01;;;;;;;;;;;21.60;58.10;;;;;;518824;229;1331;-47
2021/10/05 04:49:02;;;;;;;;;;;21.60;58.00;;;;;;518871;229;1195;-46
2021/10/05 04:51:04;;;;;;;;;;;21.60;58.10;;;;;;518818;229;1065;-47
2021/10/05 04:53:05;;;;;;;;;;;21.60;58.10;;;;;;518771;229;1152;-47
2021/10/05 04:55:06;;;;;;;;;;;21.60;58.20;;;;;;518738;230;1090;-47
2021/10/05 04:57:07;;;;;;;;;;;21.60;58.20;;;;;;518835;229;2144;-47
2021/10/05 04:59:09;;;;;;;;;;;21.60;58.10;;;;;;518774;229;1212;-47
2021/10/05 05:01:10;;;;;;;;;;;21.60;58.10;;;;;;518599;229;1146;-47
2021/10/05 05:03:12;;;;;;;;;;;21.60;58.10;;;;;;518582;229;1162;-47
2021/10/05 05:05:13;;;;;;;;;;;21.60;58.20;;;;;;518598;230;1043;-46
2021/10/05 05:07:14;;;;;;;;;;;21.60;58.10;;;;;;518629;229;1331;-46
2021/10/05 05:09:16;;;;;;;;;;;21.60;58.10;;;;;;518744;229;1057;-47
2021/10/05 05:11:17;;;;;;;;;;;21.60;58.10;;;;;;518620;230;1287;-47
2021/10/05 05:13:18;;;;;;;;;;;21.60;58.10;;;;;;518731;229;1038;-46
2021/10/05 05:15:20;;;;;;;;;;;21.60;58.10;;;;;;518658;230;1084;-46
2021/10/05 05:17:21;;;;;;;;;;;21.60;58.10;;;;;;518681;229;2191;-45
2021/10/05 05:19:22;;;;;;;;;;;21.60;58.00;;;;;;518710;229;1137;-46
2021/10/05 05:21:24;;;;;;;;;;;21.60;58.00;;;;;;518675;229;1113;-46
2021/10/05 05:23:25;;;;;;;;;;;21.60;58.00;;;;;;518657;229;1061;-46
2021/10/05 05:25:26;;;;;;;;;;;21.60;58.00;;;;;;518856;229;1076;-46
2021/10/05 05:27:28;;;;;;;;;;;21.70;58.10;;;;;;518624;229;1227;-46
2021/10/05 05:29:29;;;;;;;;;;;21.60;58.00;;;;;;518691;229;1043;-45
2021/10/05 05:31:31;;;;;;;;;;;21.60;58.10;;;;;;518656;229;1170;-46
2021/10/05 05:33:32;;;;;;;;;;;21.60;58.10;;;;;;518711;229;1072;-46
2021/10/05 05:35:33;;;;;;;;;;;21.60;58.20;;;;;;518638;229;1084;-45
2021/10/05 05:37:35;;;;;;;;;;;21.60;58.20;;;;;;518424;230;2175;-45
2021/10/05 05:39:39;;;;;;;;;;;21.60;58.10;;;;;;518556;229;1066;-46
2021/10/05 05:41:38;;;;;;;;;;;21.60;58.10;;;;;;518130;229;2114;-46
2021/10/05 05:43:39;;;;;;;;;;;21.60;58.10;;;;;;518498;229;1067;-46
2021/10/05 05:45:40;;;;;;;;;;;21.60;58.10;;;;;;518435;230;1106;-46
2021/10/05 05:47:42;;;;;;;;;;;21.60;58.10;;;;;;518388;229;1189;-46
2021/10/05 05:49:43;;;;;;;;;;;21.60;58.10;;;;;;518443;229;1065;-46
2021/10/05 05:51:44;;;;;;;;;;;21.60;58.10;;;;;;518333;230;1324;-46
2021/10/05 05:53:46;;;;;;;;;;;21.60;58.10;;;;;;518636;229;1125;-45
2021/10/05 05:55:47;;;;;;;;;;;21.60;58.10;;;;;;518399;230;1187;-46
2021/10/05 05:57:50;;;;;;;;;;;21.60;58.10;;;;;;518326;229;2183;-45
2021/10/05 05:59:50;;;;;;;;;;;21.70;58.00;;;;;;518122;230;1935;-46
2021/10/05 06:01:51;;;;;;;;;;;21.70;58.00;;;;;;518266;229;1370;-46
2021/10/05 06:03:52;;;;;;;;;;;21.60;58.00;;;;;;518452;230;1072;-46
2021/10/05 06:05:53;;;;;;;;;;;21.60;58.10;;;;;;518459;229;1271;-46
2021/10/05 06:07:55;;;;;;;;;;;21.60;58.10;;;;;;518263;230;1161;-46
2021/10/05 06:09:56;;;;;;;;;;;21.60;58.10;;;;;;518340;229;1048;-46
2021/10/05 06:12:02;;;;;;;;;;;21.60;58.10;;;;;;518110;230;1310;-46
2021/10/05 06:13:59;;;;;;;;;;;21.60;58.20;;;;;;517900;230;2091;-46
2021/10/05 06:16:00;;;;;;;;;;;21.60;58.20;;;;;;518230;230;1349;-46
2021/10/05 06:18:02;;;;;;;;;;;21.60;58.20;;;;;;518453;229;2188;-46
2021/10/05 06:20:03;;;;;;;;;;;21.60;58.20;;;;;;518487;229;1066;-46
2021/10/05 06:22:04;;;;;;;;;;;21.60;58.20;;;;;;518410;229;1568;-45
2021/10/05 06:24:06;;;;;;;;;;;21.60;58.20;;;;;;518266;230;1128;-46
2021/10/05 06:26:07;;;;;;;;;;;21.60;58.20;;;;;;518314;229;1391;-46
2021/10/05 06:28:08;;;;;;;;;;;21.60;58.20;;;;;;518259;230;1209;-45
2021/10/05 06:30:10;;;;;;;;;;;21.60;58.20;;;;;;518392;229;1245;-46
2021/10/05 06:32:11;;;;;;;;;;;21.60;58.20;;;;;;518215;230;1638;-46
2021/10/05 06:34:12;;;;;;;;;;;21.60;58.10;;;;;;518100;229;1118;-46
2021/10/05 06:36:13;;;;;;;;;;;21.60;58.10;;;;;;518123;229;1333;-45
2021/10/05 06:38:15;;;;;;;;;;;21.60;58.10;;;;;;518173;229;2175;-45
2021/10/05 06:40:16;;;;;;;;;;;21.60;58.20;;;;;;518048;230;1137;-46
2021/10/05 06:42:17;;;;;;;;;;;21.60;58.30;;;;;;518178;230;1215;-47
2021/10/05 06:44:22;;;;;;;;;;;21.60;58.10;;;;;;518032;230;1212;-47
2021/10/05 06:46:20;;;;;;;;;;;21.60;58.20;;;;;;517622;229;2265;-47
2021/10/05 06:48:21;;;;;;;;;;;21.60;58.00;;;;;;518028;230;1225;-46
2021/10/05 06:50:23;;;;;;;;;;;21.70;58.00;;;;;;518104;229;1545;-47
2021/10/05 06:52:24;;;;;;;;;;;21.60;58.10;;;;;;518142;229;1208;-47
2021/10/05 06:54:25;;;;;;;;;;;21.60;58.10;;;;;;518209;230;1139;-46
2021/10/05 06:56:30;;;;;;;;;;;21.60;58.10;;;;;;518224;229;1315;-47
2021/10/05 06:58:28;;;;;;;;;;;21.60;58.10;;;;;;517852;230;2318;-47
2021/10/05 07:00:30;;;;;;;;;;;21.60;58.20;;;;;;517566;230;1249;-46
2021/10/05 07:02:31;;;;;;;;;;;21.60;58.20;;;;;;517857;229;1218;-46
2021/10/05 07:04:33;;;;;;;;;;;21.60;58.20;;;;;;517885;229;1170;-47
2021/10/05 07:06:34;;;;;;;;;;;21.60;58.10;;;;;;517932;229;1128;-47
2021/10/05 07:08:36;;;;;;;;;;;21.60;58.10;;;;;;518065;229;1096;-46
2021/10/05 07:10:37;;;;;;;;;;;21.60;58.00;;;;;;517845;229;2128;-47
2021/10/05 07:12:38;;;;;;;;;;;21.60;58.10;;;;;;518140;229;1172;-46
2021/10/05 07:14:39;;;;;;;;;;;21.60;58.10;;;;;;518093;230;1185;-47
2021/10/05 07:16:41;;;;;;;;;;;21.60;58.10;;;;;;518038;229;1363;-47
2021/10/05 07:18:42;;;;;;;;;;;21.60;58.10;;;;;;517906;229;2178;-46
2021/10/05 07:20:43;;;;;;;;;;;21.60;58.10;;;;;;517828;230;1138;-47
2021/10/05 07:22:45;;;;;;;;;;;21.60;58.10;;;;;;518267;229;1219;-47
2021/10/05 07:24:46;;;;;;;;;;;21.60;58.00;;;;;;518093;230;1066;-47
2021/10/05 07:26:47;;;;;;;;;;;21.70;58.10;;;;;;517898;229;1237;-46
2021/10/05 07:28:48;;;;;;;;;;;21.60;58.10;;;;;;517881;230;1188;-46
2021/10/05 07:30:50;;;;;;;;;;;21.60;58.10;;;;;;517912;230;1248;-45
2021/10/05 07:32:51;;;;;;;;;;;21.60;58.10;;;;;;518974;229;1149;-45
2021/10/05 07:34:52;;;;;;;;;;;21.60;58.10;;;;;;518462;229;1081;-46
2021/10/05 07:36:54;;;;;;;;;;;21.60;58.00;;;;;;518211;230;1275;-46
2021/10/05 07:38:55;;;;;;;;;;;21.70;58.00;;;;;;518120;229;2155;-46
2021/10/05 07:40:57;;;;;;;;;;;21.60;58.10;;;;;;517509;229;1303;-45
2021/10/05 07:42:58;;;;;;;;;;;21.70;58.00;;;;;;517520;230;1380;-46
2021/10/05 07:44:59;;;;;;;;;;;21.60;58.00;;;;;;517295;229;1194;-45
2021/10/05 07:47:01;;;;;;;;;;;21.60;58.10;;;;;;517815;229;1357;-46
2021/10/05 07:49:02;;;;;;;;;;;21.60;58.10;;;;;;518000;229;1078;-46
2021/10/05 07:51:03;;;;;;;;;;;21.60;58.20;;;;;;518081;229;1305;-45
2021/10/05 07:53:05;;;;;;;;;;;21.70;58.10;;;;;;517648;230;1180;-46
2021/10/05 07:55:06;;;;;;;;;;;21.60;58.00;;;;;;516946;230;1400;-45
2021/10/05 07:57:07;;;;;;;;;;;21.60;58.00;;;;;;517762;229;1333;-46
2021/10/05 07:59:09;;;;;;;;;;;21.60;58.00;;;;;;517781;229;2171;-46
2021/10/05 08:01:10;;;;;;;;;;;21.60;58.10;;;;;;517598;229;1227;-46
2021/10/05 08:03:11;;;;;;;;;;;21.60;58.00;;;;;;517771;229;1173;-46
2021/10/05 08:05:15;;;;;;;;;;;21.60;58.10;;;;;;517702;230;1164;-45
2021/10/05 08:07:15;;;;;;;;;;;21.60;58.10;;;;;;518620;229;1366;-45
2021/10/05 08:09:16;;;;;;;;;;;21.60;58.10;;;;;;517870;230;1068;-47
2021/10/05 08:11:19;;;;;;;;;;;21.60;58.10;;;;;;517937;229;1337;-46
2021/10/05 08:13:19;;;;;;;;;;;21.60;58.10;;;;;;518314;229;2111;-46
2021/10/05 08:15:20;;;;;;;;;;;21.60;58.10;;;;;;517893;229;1169;-46
2021/10/05 08:17:21;;;;;;;;;;;21.60;58.10;;;;;;518317;229;1330;-46
2021/10/05 08:19:23;;;;;;;;;;;21.60;58.00;;;;;;517975;230;2167;-46
2021/10/05 08:21:24;;;;;;;;;;;21.60;58.00;;;;;;517932;230;1369;-46
2021/10/05 08:23:26;;;;;;;;;;;21.60;58.20;;;;;;518027;230;1043;-46
2021/10/05 08:25:27;;;;;;;;;;;21.60;58.10;;;;;;517811;229;1323;-45
2021/10/05 08:27:28;;;;;;;;;;;21.60;58.10;;;;;;517696;229;1688;-45
2021/10/05 08:29:30;;;;;;;;;;;21.60;58.10;;;;;;517956;229;1215;-45
2021/10/05 08:31:31;;;;;;;;;;;21.60;58.10;;;;;;517939;229;1226;-46
2021/10/05 08:33:32;;;;;;;;;;;21.60;58.00;;;;;;518045;230;1094;-46
2021/10/05 08:35:34;;;;;;;;;;;21.60;58.00;;;;;;518144;229;1128;-46
2021/10/05 08:37:35;;;;;;;;;;;21.60;58.10;;;;;;518766;229;1216;-47
2021/10/05 08:39:36;;;;;;;;;;;21.60;58.10;;;;;;517985;230;2186;-46
2021/10/05 08:41:37;;;;;;;;;;;21.60;58.00;;;;;;517761;229;1305;-46
2021/10/05 08:43:39;;;;;;;;;;;21.60;58.10;;;;;;518709;229;950;-46
2021/10/05 08:45:40;;;;;;;;;;;21.60;58.10;;;;;;518224;229;1109;-45
2021/10/05 08:47:41;;;;;;;;;;;21.60;58.20;;;;;;518402;230;979;-46
2021/10/05 08:49:43;;;;;;;;;;;21.60;58.00;;;;;;517969;230;1073;-46
2021/10/05 08:51:45;;;;;;;;;;;21.60;58.00;;;;;;517970;229;1200;-46
2021/10/05 08:53:46;;;;;;;;;;;21.60;58.10;;;;;;518124;229;1095;-45
2021/10/05 08:55:47;;;;;;;;;;;21.60;58.10;;;;;;518093;229;1117;-45
2021/10/05 08:57:49;;;;;;;;;;;21.60;58.10;;;;;;517961;229;1128;-46
2021/10/05 08:59:50;;;;;;;;;;;21.70;58.00;;;;;;517842;229;2168;-46
2021/10/05 09:01:52;;;;;;;;;;;21.60;58.10;;;;;;517801;230;1236;-46
2021/10/05 09:03:53;;;;;;;;;;;21.60;58.10;;;;;;517873;229;1225;-46
2021/10/05 09:05:55;;;;;;;;;;;21.60;58.00;;;;;;517891;229;1077;-46
2021/10/05 09:07:57;;;;;;;;;;;21.60;58.10;;;;;;517857;229;1115;-46
2021/10/05 09:09:58;;;;;;;;;;;21.60;58.10;;;;;;517934;230;1163;-46
2021/10/05 09:11:59;;;;;;;;;;;21.70;58.00;;;;;;517952;229;1363;-46
2021/10/05 09:14:01;;;;;;;;;;;21.70;58.00;;;;;;518028;230;1209;-46
2021/10/05 09:16:02;;;;;;;;;;;21.60;58.00;;;;;;517913;229;1239;-45
2021/10/05 09:18:04;;;;;;;;;;;21.60;58.10;;;;;;518125;229;1214;-45
2021/10/05 09:20:05;;;;;;;;;;;21.60;58.00;;;;;;518014;230;2460;-46
2021/10/05 09:22:07;;;;;;;;;;;21.60;58.00;;;;;;518004;229;1115;-46
2021/10/05 09:24:08;;;;;;;;;;;21.70;58.00;;;;;;518099;230;1195;-46
2021/10/05 09:26:09;;;;;;;;;;;21.60;58.00;;;;;;518044;230;1159;-46
2021/10/05 09:28:11;;;;;;;;;;;21.70;58.00;;;;;;517898;229;1234;-46
2021/10/05 09:30:12;;;;;;;;;;;21.70;58.00;;;;;;517707;230;1147;-45
2021/10/05 09:32:13;;;;;;;;;;;21.60;58.00;;;;;;517699;230;1390;-46
2021/10/05 09:34:15;;;;;;;;;;;21.60;58.00;;;;;;517875;229;1276;-45
2021/10/05 09:36:16;;;;;;;;;;;21.70;58.00;;;;;;517959;229;1262;-46
2021/10/05 09:38:17;;;;;;;;;;;21.60;58.10;;;;;;518964;229;1007;-47
2021/10/05 09:40:19;;;;;;;;;;;21.60;58.10;;;;;;518317;230;2167;-46
2021/10/05 09:42:20;;;;;;;;;;;21.60;58.10;;;;;;518449;230;1111;-47
2021/10/05 09:44:21;;;;;;;;;;;21.60;58.10;;;;;;518993;229;983;-47
2021/10/05 09:46:23;;;;;;;;;;;21.60;58.10;;;;;;518550;229;1145;-47
2021/10/05 09:48:24;;;;;;;;;;;21.60;58.10;;;;;;518940;229;1953;-47
2021/10/05 09:50:28;;;;;;;;;;;21.60;58.10;;;;;;517985;229;1480;-47
2021/10/05 09:52:27;;;;;;;;;;;21.60;58.20;;;;;;517636;229;2464;-47
2021/10/05 09:54:28;;;;;;;;;;;21.60;58.10;;;;;;517938;229;1066;-47
2021/10/05 09:56:29;;;;;;;;;;;21.60;58.20;;;;;;517730;229;1337;-47
2021/10/05 09:58:31;;;;;;;;;;;21.60;58.20;;;;;;518050;229;1192;-47
2021/10/05 10:00:32;;;;;;;;;;;21.60;58.10;;;;;;517807;229;2168;-46
2021/10/05 10:02:33;;;;;;;;;;;21.60;58.00;;;;;;518048;229;1247;-47
2021/10/05 10:04:35;;;;;;;;;;;21.70;58.00;;;;;;517929;229;1090;-46
2021/10/05 10:06:36;;;;;;;;;;;21.60;58.00;;;;;;517809;230;1163;-47
2021/10/05 10:08:37;;;;;;;;;;;21.60;58.00;;;;;;517993;229;1220;-47
2021/10/05 10:10:38;;;;;;;;;;;21.60;58.10;;;;;;518081;229;1057;-47
2021/10/05 10:12:40;;;;;;;;;;;21.60;58.10;;;;;;517948;230;1508;-47
2021/10/05 10:14:41;;;;;;;;;;;21.60;58.20;;;;;;518007;229;1216;-47
2021/10/05 10:16:42;;;;;;;;;;;21.60;58.20;;;;;;518552;229;1177;-47
2021/10/05 10:18:44;;;;;;;;;;;21.60;58.10;;;;;;518892;229;2195;-46
2021/10/05 10:20:50;;;;;;;;;;;21.60;58.20;;;;;;518794;229;1101;-46
2021/10/05 10:22:46;;;;;;;;;;;21.60;58.20;;;;;;517900;230;1234;-47
2021/10/05 10:24:48;;;;;;;;;;;21.60;58.10;;;;;;518129;229;1083;-47
2021/10/05 10:26:55;;;;;;;;;;;21.60;58.10;;;;;;518240;229;1315;-46
2021/10/05 10:28:51;;;;;;;;;;;21.60;58.10;;;;;;517673;229;1245;-46
2021/10/05 10:30:52;;;;;;;;;;;21.60;58.20;;;;;;517787;230;1236;-47
2021/10/05 10:32:53;;;;;;;;;;;21.60;58.10;;;;;;518925;229;1197;-45
2021/10/05 10:34:54;;;;;;;;;;;21.60;58.10;;;;;;518530;229;1350;-46
2021/10/05 10:36:55;;;;;;;;;;;21.60;58.10;;;;;;517901;230;1454;-46
2021/10/05 10:38:57;;;;;;;;;;;21.60;58.10;;;;;;517834;230;2163;-46
2021/10/05 10:40:58;;;;;;;;;;;21.60;58.10;;;;;;517799;230;1085;-46
2021/10/05 10:43:00;;;;;;;;;;;21.60;58.10;;;;;;517930;230;1206;-46
2021/10/05 10:45:01;;;;;;;;;;;21.60;58.10;;;;;;517820;230;1172;-46
2021/10/05 10:47:02;;;;;;;;;;;21.60;58.10;;;;;;517894;230;1285;-47
2021/10/05 10:49:03;;;;;;;;;;;21.60;58.00;;;;;;518033;229;1528;-46
2021/10/05 10:51:05;;;;;;;;;;;21.70;58.00;;;;;;517996;229;1323;-47
2021/10/05 10:53:06;;;;;;;;;;;21.60;58.00;;;;;;518178;230;1176;-46
2021/10/05 10:55:07;;;;;;;;;;;21.60;58.00;;;;;;517906;230;1239;-47
2021/10/05 10:57:09;;;;;;;;;;;21.70;58.00;;;;;;517919;229;1324;-47
2021/10/05 10:59:10;;;;;;;;;;;21.60;58.00;;;;;;518067;230;2105;-47
2021/10/05 11:01:14;;;;;;;;;;;21.60;58.00;;;;;;517852;229;1167;-46
2021/10/05 11:03:13;;;;;;;;;;;21.60;58.10;;;;;;517826;229;2188;-46
2021/10/05 11:05:14;;;;;;;;;;;21.60;58.10;;;;;;518112;229;1077;-46
2021/10/05 11:07:15;;;;;;;;;;;21.70;58.10;;;;;;518097;230;1351;-46
2021/10/05 11:09:17;;;;;;;;;;;21.70;58.00;;;;;;517999;230;1055;-42
2021/10/05 11:11:20;;;;;;;;;;;21.70;58.10;;;;;;518139;229;1285;-45
2021/10/05 11:13:19;;;;;;;;;;;21.60;58.10;;;;;;518499;229;1311;-46
2021/10/05 11:15:21;;;;;;;;;;;21.60;58.00;;;;;;518004;230;1078;-46
2021/10/05 11:17:22;;;;;;;;;;;21.70;58.00;;;;;;518408;229;1202;-45
2021/10/05 11:19:23;;;;;;;;;;;21.60;58.00;;;;;;518971;229;2191;-46
2021/10/05 11:21:24;;;;;;;;;;;21.70;58.00;;;;;;518354;230;1216;-46
2021/10/05 11:23:26;;;;;;;;;;;21.70;58.00;;;;;;518271;230;1081;-46
2021/10/05 11:25:27;;;;;;;;;;;21.60;58.10;;;;;;518023;229;1192;-46
2021/10/05 11:27:29;;;;;;;;;;;21.60;58.10;;;;;;518307;230;1221;-45
2021/10/05 11:29:30;;;;;;;;;;;21.60;58.00;;;;;;518891;229;1192;-45
2021/10/05 11:31:31;;;;;;;;;;;21.70;58.10;;;;;;518485;229;1225;-46
2021/10/05 11:33:32;;;;;;;;;;;21.70;58.00;;;;;;518799;229;1109;-46
2021/10/05 11:35:34;;;;;;;;;;;21.70;58.00;;;;;;518866;229;1048;-45
2021/10/05 11:37:37;;;;;;;;;;;21.70;58.00;;;;;;518288;230;1043;-47
2021/10/05 11:39:36;;;;;;;;;;;21.60;58.00;;;;;;518784;229;2171;-46
2021/10/05 11:41:38;;;;;;;;;;;21.60;58.00;;;;;;518357;230;1117;-45
2021/10/05 11:43:39;;;;;;;;;;;21.60;58.10;;;;;;518128;230;1223;-45
2021/10/05 11:45:40;;;;;;;;;;;21.60;58.10;;;;;;518059;229;1241;-46
2021/10/05 11:47:42;;;;;;;;;;;21.60;58.20;;;;;;518147;230;1434;-46
2021/10/05 11:49:43;;;;;;;;;;;21.60;58.10;;;;;;518191;230;1260;-45
2021/10/05 11:51:44;;;;;;;;;;;21.60;58.10;;;;;;518061;230;1370;-45
2021/10/05 11:53:45;;;;;;;;;;;21.70;58.10;;;;;;518248;229;1183;-45
2021/10/05 11:55:47;;;;;;;;;;;21.60;58.10;;;;;;518077;229;1123;-45
2021/10/05 11:57:48;;;;;;;;;;;21.60;58.00;;;;;;518380;229;1167;-46